Main page
METAR-TAF:

METAR-TAF

Airports :

Salalah International Airport

Salalah, Oman

latitude: 17-02N, longitude: 054-05E, elevation: 20 m

Current weather observation

The report was made 55 minutes ago, at 17:50 UTC
Wind 7 kt from the Northeast
Temperature 28°C
Humidity 55%
Pressure 1016 hPa
Visibility 10 km or more
Scattered clouds at a height of 8000 ft

METAR: OOSA 061750Z 04007KT 9999 SCT080 28/18 Q1016 NOSIG

Time: 22:45 (18:45 UTC)

Forecast

The report was made 1 hour and 45 minutes ago, at 17:00 UTC
Forecast valid from 06 at 18 UTC to 08 at 00 UTC
Wind 8 kt from the Northeast
Visibility 10 km or more
Few clouds at a height of 2500 ft
Broken clouds at a height of 8000 ft
Becoming
from 07 at 09 UTC to 07 at 11 UTC
Wind 7 kt from the Southeast
Scattered clouds at a height of 2500 ft
Becoming
from 07 at 15 UTC to 07 at 17 UTC
Wind 3 kt from variable directions

TAF: OOSA 061700Z 0618/0800 04008KT 9999 FEW025 BKN080 BECMG 0709/0711 13007KT SCT025 BECMG 0715/0717 VRB03KT

Weather observations and forecasts of more than 4000 airports (METAR and TAF reports).

The available stations are represented by yellow and red dots on the map.

Hover mouse over dot to see the name of the station.

Then click to see weather observations and forecasts.

To change the map : click on the green buttons with a black cross to zoom in, on the green button with a dash to zoom out, or on the green arrows for adjacent maps.


METAR-TAF: